createdAt,value
2018-06-28T00:00:42.516Z,15.40
2018-06-28T00:03:11.322Z,15.30
2018-06-28T00:05:39.834Z,15.30
2018-06-28T00:08:08.613Z,15.30
2018-06-28T00:10:37.520Z,15.20
2018-06-28T00:13:06.497Z,15.20
2018-06-28T00:15:34.938Z,15.20
2018-06-28T00:18:03.359Z,15.10
2018-06-28T00:20:32.203Z,15.10
2018-06-28T00:23:00.839Z,15.10
2018-06-28T00:25:29.277Z,15.10
2018-06-28T00:27:57.730Z,15.10
2018-06-28T00:30:26.523Z,15.00
2018-06-28T00:32:54.979Z,15.00
2018-06-28T00:35:24.055Z,15.00
2018-06-28T00:37:52.482Z,15.00
2018-06-28T00:40:20.937Z,15.00
2018-06-28T00:42:49.375Z,15.00
2018-06-28T00:45:17.851Z,15.00
2018-06-28T00:47:46.311Z,14.90
2018-06-28T00:50:14.746Z,15.00
2018-06-28T00:52:43.213Z,15.00
2018-06-28T00:55:11.668Z,14.90
2018-06-28T00:57:40.080Z,14.90
2018-06-28T01:00:08.870Z,14.90
2018-06-28T01:02:37.402Z,14.90
2018-06-28T01:05:06.095Z,14.90
2018-06-28T01:07:34.559Z,14.90
2018-06-28T01:10:03.000Z,14.80
2018-06-28T01:12:31.814Z,14.80
2018-06-28T01:15:00.296Z,14.80
2018-06-28T01:17:29.128Z,14.70
2018-06-28T01:19:57.570Z,14.70
2018-06-28T01:22:26.014Z,14.70
2018-06-28T01:24:54.454Z,14.60
2018-06-28T01:27:22.933Z,14.60
2018-06-28T01:29:51.370Z,14.50
2018-06-28T01:32:19.839Z,14.50
2018-06-28T01:34:48.274Z,14.50
2018-06-28T01:37:17.062Z,14.40
2018-06-28T01:39:45.489Z,14.40
2018-06-28T01:42:25.126Z,14.40
2018-06-28T01:44:53.567Z,14.40
2018-06-28T01:47:22.128Z,14.30
2018-06-28T01:49:50.544Z,14.30
2018-06-28T01:54:47.918Z,14.30
2018-06-28T01:57:16.342Z,14.30
2018-06-28T01:59:44.778Z,14.30
2018-06-28T02:02:13.202Z,14.20
2018-06-28T02:04:41.647Z,14.30
2018-06-28T02:07:10.408Z,14.20
2018-06-28T02:09:38.854Z,14.20
2018-06-28T02:12:07.632Z,14.10
2018-06-28T02:14:36.078Z,14.10
2018-06-28T02:17:04.666Z,14.10
2018-06-28T02:19:33.103Z,14.00
2018-06-28T02:22:01.546Z,14.00
2018-06-28T02:24:29.999Z,14.00
2018-06-28T02:26:58.451Z,13.90
2018-06-28T02:29:26.883Z,13.90
2018-06-28T02:31:55.310Z,13.80
2018-06-28T02:34:23.738Z,13.80
2018-06-28T02:39:20.336Z,13.80
2018-06-28T02:41:48.783Z,13.80
2018-06-28T02:44:17.209Z,13.70
2018-06-28T02:46:46.342Z,13.70
2018-06-28T02:49:14.878Z,13.70
2018-06-28T02:51:43.339Z,13.60
2018-06-28T02:54:11.760Z,13.60
2018-06-28T02:56:40.331Z,13.60
2018-06-28T02:59:09.018Z,13.60
2018-06-28T03:01:37.467Z,13.60
2018-06-28T03:04:06.466Z,13.60
2018-06-28T03:06:34.954Z,13.60
2018-06-28T03:09:04.450Z,13.50
2018-06-28T03:11:33.040Z,13.50
2018-06-28T03:14:01.478Z,13.50
2018-06-28T03:16:29.933Z,13.50
2018-06-28T03:18:58.368Z,13.50
2018-06-28T03:21:26.823Z,13.50
2018-06-28T03:23:55.230Z,13.40
2018-06-28T03:26:23.710Z,13.40
2018-06-28T03:28:52.131Z,13.40
2018-06-28T03:31:20.643Z,13.40
2018-06-28T03:33:49.058Z,13.40
2018-06-28T03:36:17.475Z,13.40
2018-06-28T03:38:45.939Z,13.40
2018-06-28T03:41:14.351Z,13.40
2018-06-28T03:43:42.854Z,13.40
2018-06-28T03:46:11.296Z,13.40
2018-06-28T03:48:39.745Z,13.40
2018-06-28T03:53:36.326Z,13.50
2018-06-28T03:56:04.804Z,13.50
2018-06-28T03:58:33.262Z,13.60
2018-06-28T04:01:01.688Z,13.60
2018-06-28T04:03:30.152Z,13.70
2018-06-28T04:05:58.614Z,13.70
2018-06-28T04:08:27.058Z,13.70
2018-06-28T04:10:55.491Z,13.80
2018-06-28T04:13:23.950Z,13.80
2018-06-28T04:15:52.395Z,13.80
2018-06-28T04:18:20.850Z,13.80
2018-06-28T04:20:49.289Z,13.90
2018-06-28T04:23:17.723Z,13.90
2018-06-28T04:25:46.142Z,13.90
2018-06-28T04:28:14.588Z,13.90
2018-06-28T04:30:43.250Z,14.00
2018-06-28T04:33:11.736Z,14.00
2018-06-28T04:38:08.482Z,14.10
2018-06-28T04:40:37.230Z,14.10
2018-06-28T04:43:05.725Z,14.20
2018-06-28T04:45:34.189Z,14.30
2018-06-28T04:48:02.615Z,14.30
2018-06-28T04:50:31.055Z,14.40
2018-06-28T04:52:59.499Z,14.50
2018-06-28T04:55:27.940Z,14.60
2018-06-28T04:57:56.394Z,14.60
2018-06-28T05:00:24.862Z,14.70
2018-06-28T05:02:53.279Z,14.80
2018-06-28T05:05:22.032Z,14.90
2018-06-28T05:07:50.464Z,15.00
2018-06-28T05:10:18.919Z,15.10
2018-06-28T05:12:47.363Z,15.10
2018-06-28T05:15:17.203Z,15.20
2018-06-28T05:17:46.790Z,15.20
2018-06-28T05:20:15.434Z,15.40
2018-06-28T05:22:44.003Z,15.40
2018-06-28T05:25:12.446Z,15.50
2018-06-28T05:27:40.882Z,15.60
2018-06-28T05:30:09.377Z,15.80
2018-06-28T05:32:37.814Z,15.90
2018-06-28T05:35:06.426Z,16.10
2018-06-28T05:37:34.914Z,16.20
2018-06-28T05:40:03.703Z,16.30
2018-06-28T05:42:32.165Z,16.50
2018-06-28T05:45:00.602Z,16.60
2018-06-28T05:47:29.058Z,16.70
2018-06-28T05:49:57.494Z,16.80
2018-06-28T05:52:25.994Z,16.90
2018-06-28T05:54:54.478Z,17.00
2018-06-28T05:57:22.938Z,17.20
2018-06-28T05:59:51.391Z,17.30
2018-06-28T06:02:19.965Z,17.50
2018-06-28T06:04:48.410Z,17.70
2018-06-28T06:07:17.226Z,18.00
2018-06-28T06:09:45.703Z,18.40
2018-06-28T06:12:14.562Z,18.80
2018-06-28T06:14:43.034Z,19.20
2018-06-28T06:17:11.508Z,19.70
2018-06-28T06:19:39.950Z,20.20
2018-06-28T06:22:08.476Z,20.50
2018-06-28T06:24:36.923Z,21.00
2018-06-28T06:27:05.395Z,22.00
2018-06-28T06:29:33.827Z,24.40
2018-06-28T06:32:02.266Z,28.50
2018-06-28T06:34:31.030Z,31.50
2018-06-28T06:36:59.646Z,32.40
2018-06-28T06:39:28.066Z,33.50
2018-06-28T06:41:56.488Z,34.70
2018-06-28T06:44:24.979Z,36.00
2018-06-28T06:46:53.967Z,36.20
2018-06-28T06:49:22.998Z,36.80
2018-06-28T06:51:56.269Z,37.70
2018-06-28T06:54:25.311Z,37.50
2018-06-28T06:56:54.296Z,37.30
2018-06-28T06:59:23.699Z,38.30
2018-06-28T07:01:53.685Z,37.70
2018-06-28T07:04:22.754Z,37.90
2018-06-28T07:06:52.629Z,37.20
2018-06-28T07:09:21.628Z,36.90
2018-06-28T07:11:50.682Z,37.00
2018-06-28T07:14:19.699Z,37.40
2018-06-28T07:16:48.701Z,36.70
2018-06-28T07:21:46.414Z,35.60
2018-06-28T07:24:15.409Z,36.10
2018-06-28T07:26:44.499Z,35.60
2018-06-28T07:29:13.579Z,35.40
2018-06-28T07:31:42.728Z,34.80
2018-06-28T07:34:11.764Z,35.50
2018-06-28T07:36:40.891Z,34.80
2018-06-28T07:39:11.627Z,33.20
2018-06-28T07:41:40.622Z,32.30
2018-06-28T07:44:10.287Z,31.10
2018-06-28T07:46:39.350Z,30.80
2018-06-28T07:49:08.470Z,30.20
2018-06-28T07:51:37.618Z,29.60
2018-06-28T07:54:06.967Z,30.40
2018-06-28T07:59:11.759Z,32.00
2018-06-28T08:01:41.192Z,33.20
2018-06-28T08:04:10.562Z,34.00
2018-06-28T08:06:39.578Z,34.30
2018-06-28T08:09:09.288Z,34.30
2018-06-28T08:11:38.291Z,34.40
2018-06-28T08:14:07.318Z,35.10
2018-06-28T08:16:36.307Z,35.50
2018-06-28T08:19:05.291Z,35.30
2018-06-28T08:21:34.373Z,35.60
2018-06-28T08:24:04.660Z,35.50
2018-06-28T08:26:33.708Z,35.30
2018-06-28T08:29:02.787Z,35.60
2018-06-28T08:31:31.779Z,35.20
2018-06-28T08:34:01.190Z,34.30
2018-06-28T08:36:31.048Z,33.80
2018-06-28T08:39:00.098Z,34.30
2018-06-28T08:41:29.554Z,34.90
2018-06-28T08:43:58.885Z,34.50
2018-06-28T08:46:27.923Z,34.40
2018-06-28T08:48:57.056Z,34.40
2018-06-28T08:51:26.311Z,34.10
2018-06-28T08:53:55.384Z,33.90
2018-06-28T08:56:24.395Z,33.90
2018-06-28T08:58:53.778Z,33.30
2018-06-28T09:01:23.141Z,33.20
2018-06-28T09:03:52.135Z,33.00
2018-06-28T09:06:21.148Z,33.00
2018-06-28T09:08:50.158Z,33.00
2018-06-28T09:11:19.174Z,32.90
2018-06-28T09:13:48.171Z,32.90
2018-06-28T09:16:17.545Z,32.70
2018-06-28T09:18:46.570Z,32.20
2018-06-28T09:21:15.534Z,31.70
2018-06-28T09:23:44.574Z,31.10
2018-06-28T09:26:13.571Z,30.40
2018-06-28T09:28:42.571Z,29.90
2018-06-28T09:31:11.937Z,29.70
2018-06-28T09:33:41.002Z,29.30
2018-06-28T09:36:10.004Z,28.90
2018-06-28T09:38:39.376Z,28.50
2018-06-28T09:41:08.380Z,28.50
2018-06-28T09:43:37.379Z,28.20
2018-06-28T09:46:05.846Z,28.10
2018-06-28T09:48:34.328Z,28.30
2018-06-28T09:51:02.758Z,28.50
2018-06-28T09:53:31.234Z,28.50
2018-06-28T09:55:59.672Z,28.10
2018-06-28T09:58:28.414Z,27.60
2018-06-28T10:00:56.853Z,27.30
2018-06-28T10:03:25.298Z,27.20
2018-06-28T10:05:53.728Z,27.40
2018-06-28T10:08:22.219Z,27.30
2018-06-28T10:10:50.669Z,27.30
2018-06-28T10:13:19.746Z,27.40
2018-06-28T10:15:48.693Z,27.40
2018-06-28T10:18:17.113Z,27.50
2018-06-28T10:20:45.970Z,27.80
2018-06-28T10:23:14.764Z,28.00
2018-06-28T10:25:43.252Z,28.10
2018-06-28T10:28:11.675Z,27.80
2018-06-28T10:30:40.130Z,27.70
2018-06-28T10:33:08.582Z,27.50
2018-06-28T10:35:37.043Z,27.40
2018-06-28T10:38:05.484Z,27.30
2018-06-28T10:40:33.973Z,26.90
2018-06-28T10:43:02.417Z,27.00
2018-06-28T10:45:31.782Z,27.20
2018-06-28T10:48:00.219Z,27.50
2018-06-28T10:50:28.695Z,27.60
2018-06-28T10:52:57.304Z,27.80
2018-06-28T10:55:25.783Z,27.50
2018-06-28T10:57:54.407Z,27.50
2018-06-28T11:00:23.220Z,27.50
2018-06-28T11:02:51.700Z,27.40
2018-06-28T11:05:20.317Z,27.30
2018-06-28T11:10:17.310Z,27.30
2018-06-28T11:12:45.758Z,27.40
2018-06-28T11:15:14.212Z,27.50
2018-06-28T11:17:42.709Z,27.50
2018-06-28T11:20:11.557Z,27.40
2018-06-28T11:22:40.024Z,27.50
2018-06-28T11:25:08.562Z,27.60
2018-06-28T11:27:37.136Z,27.50
2018-06-28T11:30:06.288Z,27.30
2018-06-28T11:32:34.788Z,27.40
2018-06-28T11:35:03.785Z,27.40
2018-06-28T11:37:32.222Z,27.20
2018-06-28T11:40:00.663Z,27.10
2018-06-28T11:42:29.135Z,27.30
2018-06-28T11:44:57.943Z,27.30
2018-06-28T11:47:26.738Z,27.40
2018-06-28T11:49:55.188Z,27.40
2018-06-28T11:52:23.723Z,27.40
2018-06-28T11:54:52.303Z,27.40
2018-06-28T11:57:20.766Z,27.40
2018-06-28T11:59:49.189Z,27.40
2018-06-28T12:02:17.643Z,27.40
2018-06-28T12:04:46.094Z,27.40
2018-06-28T12:09:43.082Z,27.20
2018-06-28T12:12:11.981Z,27.30
2018-06-28T12:14:40.426Z,27.50
2018-06-28T12:17:08.881Z,27.50
2018-06-28T12:19:37.338Z,27.30
2018-06-28T12:22:05.890Z,27.10
2018-06-28T12:24:34.636Z,27.10
2018-06-28T12:27:03.479Z,27.20
2018-06-28T12:29:31.966Z,27.30
2018-06-28T12:32:01.332Z,27.50
2018-06-28T12:34:29.782Z,27.50
2018-06-28T12:36:58.242Z,27.40
2018-06-28T12:39:26.707Z,27.10
2018-06-28T12:41:55.144Z,27.10
2018-06-28T12:44:23.595Z,27.20
2018-06-28T12:48:58.745Z,27.40
2018-06-28T12:51:38.334Z,27.40
2018-06-28T12:54:06.811Z,27.40
2018-06-28T12:56:36.499Z,27.20
2018-06-28T12:59:06.720Z,27.10
2018-06-28T13:01:35.617Z,27.20
2018-06-28T13:04:04.140Z,27.40
2018-06-28T13:06:32.606Z,27.20
2018-06-28T13:09:01.606Z,27.10
2018-06-28T13:11:30.130Z,26.80
2018-06-28T13:13:58.663Z,26.60
2018-06-28T13:16:28.042Z,26.70
2018-06-28T13:18:56.494Z,26.80
2018-06-28T13:21:24.939Z,26.90
2018-06-28T13:23:53.400Z,27.10
2018-06-28T13:26:21.845Z,27.10
2018-06-28T13:28:50.273Z,27.20
2018-06-28T13:31:18.726Z,27.20
2018-06-28T13:33:47.468Z,27.00
2018-06-28T13:36:16.134Z,26.80
2018-06-28T13:38:44.595Z,26.80
2018-06-28T13:41:13.332Z,26.90
2018-06-28T13:43:41.854Z,26.90
2018-06-28T13:46:10.717Z,26.90
2018-06-28T13:48:39.701Z,27.00
2018-06-28T13:51:08.178Z,27.10
2018-06-28T13:53:36.631Z,27.00
2018-06-28T13:56:05.204Z,26.90
2018-06-28T13:58:33.646Z,26.80
2018-06-28T14:01:02.535Z,26.80
2018-06-28T14:03:31.087Z,26.70
2018-06-28T14:06:01.298Z,26.80
2018-06-28T14:08:29.715Z,26.80
2018-06-28T14:10:58.163Z,26.80
2018-06-28T14:13:26.613Z,27.10
2018-06-28T14:15:55.086Z,27.30
2018-06-28T14:18:23.506Z,27.20
2018-06-28T14:20:51.972Z,27.00
2018-06-28T14:23:20.462Z,27.00
2018-06-28T14:25:48.940Z,26.90
2018-06-28T14:28:17.511Z,26.80
2018-06-28T14:30:45.934Z,26.80
2018-06-28T14:33:14.406Z,26.80
2018-06-28T14:35:42.847Z,26.90
2018-06-28T14:38:11.312Z,27.00
2018-06-28T14:40:39.774Z,27.10
2018-06-28T14:43:08.256Z,27.10
2018-06-28T14:45:37.063Z,27.10
2018-06-28T14:48:05.547Z,27.00
2018-06-28T14:50:34.053Z,27.10
2018-06-28T14:53:03.011Z,27.00
2018-06-28T14:55:31.554Z,27.00
2018-06-28T14:58:00.419Z,27.10
2018-06-28T15:00:28.858Z,27.20
2018-06-28T15:02:57.299Z,27.10
2018-06-28T15:05:25.728Z,26.90
2018-06-28T15:07:54.178Z,26.90
2018-06-28T15:10:22.618Z,27.00
2018-06-28T15:12:51.093Z,27.10
2018-06-28T15:15:19.556Z,27.20
2018-06-28T15:17:48.194Z,27.20
2018-06-28T15:20:16.640Z,27.20
2018-06-28T15:22:45.118Z,27.10
2018-06-28T15:25:13.574Z,27.00
2018-06-28T15:27:42.097Z,26.90
2018-06-28T15:30:10.670Z,26.90
2018-06-28T15:32:39.106Z,26.90
2018-06-28T15:35:07.585Z,26.90
2018-06-28T15:37:36.048Z,27.00
2018-06-28T15:40:05.136Z,27.10
2018-06-28T15:42:33.578Z,27.00
2018-06-28T15:45:02.419Z,26.80
2018-06-28T15:47:30.849Z,26.60
2018-06-28T15:49:59.334Z,26.30
2018-06-28T15:52:28.115Z,26.20
2018-06-28T15:54:56.571Z,26.10
2018-06-28T15:57:25.052Z,26.10
2018-06-28T15:59:53.658Z,26.20
2018-06-28T16:02:22.466Z,26.20
2018-06-28T16:04:51.278Z,26.20
2018-06-28T16:07:19.731Z,26.20
2018-06-28T16:09:48.235Z,26.10
2018-06-28T16:12:16.693Z,26.00
2018-06-28T16:14:45.499Z,26.10
2018-06-28T16:17:14.008Z,26.10
2018-06-28T16:19:42.963Z,26.10
2018-06-28T16:22:11.410Z,26.10
2018-06-28T16:24:39.860Z,26.10
2018-06-28T16:27:08.639Z,26.10
2018-06-28T16:29:37.058Z,26.10
2018-06-28T16:32:05.862Z,26.20
2018-06-28T16:34:34.299Z,26.20
2018-06-28T16:37:02.760Z,26.10
2018-06-28T16:39:31.203Z,26.10
2018-06-28T16:41:59.650Z,26.10
2018-06-28T16:44:28.092Z,26.20
2018-06-28T16:46:56.571Z,26.10
2018-06-28T16:49:25.013Z,26.10
2018-06-28T16:51:53.484Z,26.10
2018-06-28T16:54:36.630Z,26.10
2018-06-28T16:57:05.499Z,26.00
2018-06-28T16:59:34.336Z,26.00
2018-06-28T17:02:02.957Z,25.90
2018-06-28T17:04:31.433Z,25.90
2018-06-28T17:07:00.068Z,25.90
2018-06-28T17:09:28.550Z,25.80
2018-06-28T17:11:57.029Z,25.80
2018-06-28T17:14:25.514Z,25.80
2018-06-28T17:16:54.137Z,25.70
2018-06-28T17:19:22.574Z,25.70
2018-06-28T17:21:51.740Z,25.70
2018-06-28T17:24:20.183Z,25.60
2018-06-28T17:26:48.627Z,25.70
2018-06-28T17:29:17.095Z,25.70
2018-06-28T17:31:45.633Z,25.70
2018-06-28T17:34:14.266Z,25.70
2018-06-28T17:36:43.091Z,25.60
2018-06-28T17:39:11.876Z,25.60
2018-06-28T17:41:40.291Z,25.50
2018-06-28T17:44:08.770Z,25.50
2018-06-28T17:46:37.302Z,25.50
2018-06-28T17:49:05.761Z,25.50
2018-06-28T17:51:34.246Z,25.30
2018-06-28T17:54:02.710Z,25.30
2018-06-28T17:56:31.211Z,25.30
2018-06-28T17:58:59.858Z,25.30
2018-06-28T18:01:28.318Z,25.30
2018-06-28T18:03:56.918Z,25.30
2018-06-28T18:06:25.722Z,25.30
2018-06-28T18:08:54.252Z,25.20
2018-06-28T18:11:22.809Z,25.20
2018-06-28T18:13:51.333Z,25.10
2018-06-28T18:16:20.063Z,25.10
2018-06-28T18:18:48.522Z,25.00
2018-06-28T18:21:16.978Z,24.90
2018-06-28T18:23:45.538Z,24.90
2018-06-28T18:26:13.981Z,24.80
2018-06-28T18:28:42.424Z,24.80
2018-06-28T18:31:11.215Z,24.80
2018-06-28T18:33:39.659Z,24.80
2018-06-28T18:36:08.110Z,24.70
2018-06-28T18:38:36.558Z,24.60
2018-06-28T18:41:05.211Z,24.50
2018-06-28T18:43:33.659Z,24.40
2018-06-28T18:46:02.466Z,24.30
2018-06-28T18:48:30.910Z,24.30
2018-06-28T18:50:59.424Z,24.20
2018-06-28T18:53:28.521Z,24.10
2018-06-28T18:55:57.024Z,24.00
2018-06-28T18:58:25.450Z,23.90
2018-06-28T19:00:53.921Z,23.70
2018-06-28T19:03:22.373Z,23.60
2018-06-28T19:08:19.059Z,23.40
2018-06-28T19:10:53.957Z,23.20
2018-06-28T19:15:57.341Z,23.10
2018-06-28T19:18:25.818Z,23.10
2018-06-28T19:20:59.962Z,23.10
2018-06-28T19:23:48.576Z,23.00
2018-06-28T19:26:17.838Z,22.90
2018-06-28T19:28:46.707Z,22.90
2018-06-28T19:31:21.281Z,22.90
2018-06-28T19:33:50.660Z,22.90
2018-06-28T19:36:19.527Z,22.90
2018-06-28T19:38:53.300Z,22.90
2018-06-28T19:41:28.422Z,22.80
2018-06-28T19:43:57.019Z,22.60
2018-06-28T19:46:25.716Z,22.50
2018-06-28T19:48:54.152Z,22.40
2018-06-28T19:51:29.131Z,22.40
2018-06-28T19:53:57.534Z,22.30
2018-06-28T19:56:26.050Z,22.20
2018-06-28T19:58:55.518Z,22.20
2018-06-28T20:01:29.846Z,22.10
2018-06-28T20:04:03.752Z,22.10
2018-06-28T20:06:32.214Z,22.10
2018-06-28T20:09:00.670Z,22.10
2018-06-28T20:11:30.066Z,22.00
2018-06-28T20:14:04.291Z,22.00
2018-06-28T20:16:38.294Z,22.00
2018-06-28T20:19:12.423Z,21.90
2018-06-28T20:21:41.885Z,21.80
2018-06-28T20:24:10.318Z,21.70
2018-06-28T20:26:44.121Z,21.60
2018-06-28T20:29:17.862Z,21.40
2018-06-28T20:33:58.648Z,21.50
2018-06-28T20:36:27.120Z,21.40
2018-06-28T20:38:55.576Z,21.30
2018-06-28T20:41:24.123Z,21.20
2018-06-28T20:43:52.636Z,21.20
2018-06-28T20:46:21.114Z,21.10
2018-06-28T20:48:49.649Z,21.10
2018-06-28T20:51:18.118Z,21.00
2018-06-28T20:53:46.711Z,20.90
2018-06-28T20:56:15.546Z,20.80
2018-06-28T20:58:46.063Z,20.80
2018-06-28T21:01:14.887Z,20.80
2018-06-28T21:03:43.393Z,20.70
2018-06-28T21:06:12.390Z,20.70
2018-06-28T21:08:40.984Z,20.60
2018-06-28T21:11:09.496Z,20.70
2018-06-28T21:13:38.288Z,20.60
2018-06-28T21:16:07.210Z,20.50
2018-06-28T21:18:35.753Z,20.50
2018-06-28T21:21:04.484Z,20.50
2018-06-28T21:23:33.365Z,20.50
2018-06-28T21:26:01.854Z,20.50
2018-06-28T21:28:30.326Z,20.50
2018-06-28T21:30:58.770Z,20.40
2018-06-28T21:33:27.223Z,20.40
2018-06-28T21:35:55.800Z,20.30
2018-06-28T21:38:24.286Z,20.20
2018-06-28T21:40:52.759Z,20.10
2018-06-28T21:43:21.940Z,20.10
2018-06-28T21:45:50.845Z,20.10
2018-06-28T21:48:19.369Z,20.00
2018-06-28T21:50:47.979Z,19.90
2018-06-28T21:53:16.447Z,19.90
2018-06-28T21:58:13.600Z,19.70
2018-06-28T22:00:44.345Z,19.70
2018-06-28T22:03:13.442Z,19.70
2018-06-28T22:05:41.886Z,19.70
2018-06-28T22:08:10.388Z,19.60
2018-06-28T22:10:39.081Z,19.60
2018-06-28T22:13:07.886Z,19.60
2018-06-28T22:18:05.518Z,19.40
2018-06-28T22:20:34.244Z,19.30
2018-06-28T22:23:02.690Z,19.20
2018-06-28T22:25:31.966Z,19.20
2018-06-28T22:28:00.397Z,19.10
2018-06-28T22:30:28.883Z,19.20
2018-06-28T22:32:57.718Z,19.20
2018-06-28T22:35:26.638Z,19.10
2018-06-28T22:37:55.154Z,19.10
2018-06-28T22:40:23.958Z,19.00
2018-06-28T22:42:52.375Z,18.90
2018-06-28T22:45:20.811Z,18.80
2018-06-28T22:47:49.882Z,18.80
2018-06-28T22:50:18.362Z,18.80
2018-06-28T22:52:47.019Z,18.70
2018-06-28T22:55:15.465Z,18.70
2018-06-28T22:57:43.924Z,18.70
2018-06-28T23:00:14.713Z,18.70
2018-06-28T23:02:43.219Z,18.60
2018-06-28T23:05:11.698Z,18.60
2018-06-28T23:07:40.183Z,18.50
2018-06-28T23:10:08.652Z,18.40
2018-06-28T23:12:37.126Z,18.40
2018-06-28T23:15:05.962Z,18.40
2018-06-28T23:17:34.422Z,18.40
2018-06-28T23:20:02.914Z,18.20
2018-06-28T23:22:47.960Z,18.20
2018-06-28T23:25:16.620Z,18.10
2018-06-28T23:27:46.230Z,18.00
2018-06-28T23:30:15.361Z,17.90
2018-06-28T23:32:44.176Z,17.90
2018-06-28T23:35:12.679Z,17.80
2018-06-28T23:37:41.474Z,17.80
2018-06-28T23:40:09.922Z,17.80
2018-06-28T23:42:38.934Z,17.80
2018-06-28T23:45:08.633Z,17.80
2018-06-28T23:47:37.462Z,17.80
2018-06-28T23:50:07.450Z,17.70
2018-06-28T23:52:35.919Z,17.70
2018-06-28T23:55:05.076Z,17.70
2018-06-28T23:57:33.546Z,17.70
